Overview Statistics Trail Chart Weather Telemetry Raw packets
 

This is the latest recevied weather packets stored in our database for station/object NR6G-12. If no packets are shown the sender has not sent any weather packets the latest 10 day(s).

<< 13 14 15 16 17 18 19 >>
Time Temp. Humidity Pressure Rain* Wind** Luminosity Snow
1788565814 17.78° C 64% 1015.3 hPa 0 mm - - -
1788565454 18.33° C 62% 1015.4 hPa 0 mm - - -
1788565094 18.33° C 61% 1015.4 hPa 0 mm - - -
1788564734 18.33° C 62% 1015.3 hPa 0 mm - - -
1788564374 18.89° C 60% 1015.4 hPa 0 mm - - -
1788564014 18.89° C 60% 1015.3 hPa 0 mm - - -
1788563654 18.89° C 62% 1015.3 hPa 0 mm - - -
1788563294 18.89° C 61% 1015.4 hPa 0 mm - - -
1788562934 18.33° C 61% 1015.5 hPa 0 mm - - -
1788562574 18.33° C 61% 1015.6 hPa 0 mm - - -
1788562214 18.33° C 62% 1015.6 hPa 0 mm - - -
1788561854 18.89° C 59% 1015.7 hPa 0 mm - - -
1788561494 18.89° C 60% 1015.6 hPa 0 mm - - -
1788561134 18.89° C 60% 1015.7 hPa 0 mm - - -
1788560774 18.89° C 61% 1015.7 hPa 0 mm - - -
1788560414 18.33° C 62% 1015.7 hPa 0 mm - - -
1788560054 17.78° C 64% 1015.8 hPa 0 mm - - -
1788559694 17.78° C 63% 1015.9 hPa 0 mm - - -
1788559334 18.33° C 63% 1015.9 hPa 0 mm - - -
1788558974 17.22° C 66% 1015.9 hPa 0 mm - - -
1788558614 17.22° C 65% 1015.9 hPa 0 mm - - -
1788558254 17.78° C 63% 1016 hPa 0 mm - - -
1788557894 18.33° C 62% 1015.9 hPa 0 mm - - -
1788557534 17.78° C 65% 1016 hPa 0 mm - - -
1788557174 17.22° C 66% 1016 hPa 0 mm - - -

* Rain latest hour (hover to see other rain measurements)
** Current wind speed in m/s (hover to see current wind gust speed)